createdAt,value
2024-02-19T00:03:53.288Z,6.10
2024-02-19T00:08:56.284Z,5.70
2024-02-19T00:13:59.698Z,5.20
2024-02-19T00:19:02.720Z,5.00
2024-02-19T00:24:06.516Z,5.50
2024-02-19T00:29:09.560Z,5.50
2024-02-19T00:34:12.561Z,6.10
2024-02-19T00:39:15.561Z,5.20
2024-02-19T00:44:18.470Z,4.50
2024-02-19T00:49:21.528Z,4.90
2024-02-19T00:54:24.525Z,6.10
2024-02-19T00:59:27.594Z,4.60
2024-02-19T01:04:30.600Z,5.90
2024-02-19T01:09:33.775Z,6.10
2024-02-19T01:14:37.723Z,5.80
2024-02-19T01:19:41.130Z,4.00
2024-02-19T01:24:44.170Z,5.30
2024-02-19T01:29:47.797Z,5.30
2024-02-19T01:34:50.823Z,5.50
2024-02-19T01:39:54.340Z,5.40
2024-02-19T01:44:57.275Z,5.40
2024-02-19T01:50:00.788Z,6.00
2024-02-19T01:55:05.228Z,6.30
2024-02-19T02:00:11.721Z,5.90
2024-02-19T02:05:14.756Z,6.30
2024-02-19T02:10:19.570Z,5.80
2024-02-19T02:15:22.548Z,6.40
2024-02-19T02:20:25.474Z,5.50
2024-02-19T02:25:28.424Z,6.30
2024-02-19T02:30:31.409Z,5.10
2024-02-19T02:35:35.184Z,5.50
2024-02-19T02:40:38.090Z,5.70
2024-02-19T02:45:41.065Z,6.60
2024-02-19T02:50:43.987Z,5.80
2024-02-19T02:55:46.953Z,6.10
2024-02-19T03:00:50.161Z,5.20
2024-02-19T03:05:53.368Z,5.90
2024-02-19T03:10:56.261Z,5.60
2024-02-19T03:15:59.354Z,5.30
2024-02-19T03:21:04.841Z,5.40
2024-02-19T03:26:08.122Z,5.20
2024-02-19T03:31:11.086Z,5.10
2024-02-19T03:36:14.046Z,6.30
2024-02-19T03:41:16.950Z,6.30
2024-02-19T03:46:19.881Z,6.00
2024-02-19T03:51:22.962Z,5.10
2024-02-19T03:56:25.917Z,6.30
2024-02-19T04:01:28.983Z,6.10
2024-02-19T04:06:31.941Z,5.50
2024-02-19T04:11:34.921Z,6.90
2024-02-19T04:16:37.960Z,6.40
2024-02-19T04:21:46.113Z,6.20
2024-02-19T04:26:49.397Z,5.90
2024-02-19T04:31:52.420Z,6.90
2024-02-19T04:36:55.478Z,5.90
2024-02-19T04:41:58.848Z,6.10
2024-02-19T04:47:01.849Z,6.60
2024-02-19T04:52:06.040Z,6.10
2024-02-19T04:57:09.692Z,6.40
2024-02-19T05:02:13.272Z,6.50
2024-02-19T05:07:17.353Z,7.10
2024-02-19T05:12:20.624Z,5.80
2024-02-19T05:17:23.628Z,6.50
2024-02-19T05:22:26.591Z,6.90
2024-02-19T05:27:29.762Z,7.90
2024-02-19T05:32:33.207Z,6.10
2024-02-19T05:37:36.122Z,6.70
2024-02-19T05:42:39.166Z,5.80
2024-02-19T05:47:42.076Z,7.40
2024-02-19T05:52:44.999Z,5.50
2024-02-19T05:57:48.394Z,5.60
2024-02-19T06:02:51.343Z,6.60
2024-02-19T06:07:54.349Z,5.90
2024-02-19T06:12:57.299Z,6.40
2024-02-19T06:18:00.294Z,4.90
2024-02-19T06:23:03.437Z,5.30
2024-02-19T06:28:08.238Z,4.60
2024-02-19T06:33:11.268Z,5.80
2024-02-19T06:38:14.255Z,5.90
2024-02-19T06:43:17.466Z,7.00
2024-02-19T06:48:20.675Z,7.30
2024-02-19T06:53:23.826Z,7.20
2024-02-19T06:58:26.901Z,5.30
2024-02-19T07:03:30.119Z,6.60
2024-02-19T07:08:33.112Z,7.00
2024-02-19T07:13:36.118Z,7.20
2024-02-19T07:18:39.330Z,5.60
2024-02-19T07:23:42.379Z,6.40
2024-02-19T07:28:45.347Z,7.50
2024-02-19T07:33:48.494Z,6.50
2024-02-19T07:38:51.692Z,7.90
2024-02-19T07:43:54.719Z,12.60
2024-02-19T07:48:57.812Z,9.30
2024-02-19T07:54:00.940Z,9.60
2024-02-19T07:59:03.961Z,9.30
2024-02-19T08:04:07.376Z,10.00
2024-02-19T08:09:10.888Z,8.10
2024-02-19T08:14:13.916Z,9.40
2024-02-19T08:19:17.790Z,7.40
2024-02-19T08:24:21.081Z,15.40
2024-02-19T08:29:24.116Z,20.30
2024-02-19T08:34:27.205Z,13.80
2024-02-19T08:39:30.292Z,9.90
2024-02-19T08:44:33.453Z,8.90
2024-02-19T08:49:37.650Z,8.90
2024-02-19T08:54:41.895Z,12.90
2024-02-19T08:59:47.274Z,12.20
2024-02-19T09:04:51.169Z,8.40
2024-02-19T09:09:54.469Z,14.90
2024-02-19T09:14:59.601Z,14.90
2024-02-19T09:20:04.194Z,14.00
2024-02-19T09:25:08.005Z,7.30
2024-02-19T09:30:11.637Z,6.70
2024-02-19T09:35:15.052Z,13.00
2024-02-19T09:40:22.953Z,10.60
2024-02-19T09:45:27.372Z,7.50
2024-02-19T09:50:33.109Z,8.10
2024-02-19T09:55:41.703Z,7.10
2024-02-19T10:00:56.618Z,11.10
2024-02-19T10:05:59.948Z,9.80
2024-02-19T10:11:10.372Z,9.00
2024-02-19T10:16:15.704Z,10.50
2024-02-19T10:21:19.111Z,10.50
2024-02-19T10:26:26.474Z,10.50
2024-02-19T10:31:30.972Z,11.70
2024-02-19T10:36:37.000Z,13.80
2024-02-19T10:41:44.661Z,11.60
2024-02-19T10:46:48.292Z,13.50
2024-02-19T10:51:57.616Z,14.00
2024-02-19T10:57:10.819Z,11.00
2024-02-19T11:02:21.539Z,12.40
2024-02-19T11:07:24.880Z,13.80
2024-02-19T11:12:30.793Z,13.80
2024-02-19T11:17:34.054Z,10.40
2024-02-19T11:22:39.081Z,12.30
2024-02-19T11:27:45.422Z,16.60
2024-02-19T11:32:48.679Z,19.90
2024-02-19T11:37:51.724Z,15.40
2024-02-19T11:42:55.442Z,18.30
2024-02-19T11:48:00.462Z,13.60
2024-02-19T11:53:08.220Z,16.40
2024-02-19T11:58:13.594Z,17.30
2024-02-19T12:03:19.353Z,14.60
2024-02-19T12:08:24.018Z,15.20
2024-02-19T12:13:27.638Z,11.60
2024-02-19T12:18:30.875Z,12.20
2024-02-19T12:23:37.035Z,16.80
2024-02-19T12:28:40.126Z,16.80
2024-02-19T12:33:45.517Z,17.20
2024-02-19T12:38:51.861Z,20.30
2024-02-19T12:43:57.331Z,16.30
2024-02-19T12:49:02.518Z,17.20
2024-02-19T12:54:10.666Z,27.90
2024-02-19T12:59:15.239Z,19.70
2024-02-19T13:04:19.355Z,17.60
2024-02-19T13:09:22.346Z,23.30
2024-02-19T13:14:26.173Z,19.40
2024-02-19T13:19:29.327Z,17.50
2024-02-19T13:24:32.893Z,19.40
2024-02-19T13:29:42.783Z,28.40
2024-02-19T13:34:48.444Z,19.90
2024-02-19T13:39:51.631Z,15.00
2024-02-19T13:44:57.188Z,21.20
2024-02-19T13:50:00.465Z,18.20
2024-02-19T13:55:04.069Z,17.10
2024-02-19T14:00:08.029Z,15.00
2024-02-19T14:05:11.532Z,17.00
2024-02-19T14:10:17.251Z,24.80
2024-02-19T14:15:21.835Z,26.60
2024-02-19T14:20:28.105Z,26.50
2024-02-19T14:25:34.165Z,25.80
2024-02-19T14:30:37.703Z,24.80
2024-02-19T14:35:42.081Z,26.00
2024-02-19T14:40:45.389Z,25.60
2024-02-19T14:45:49.212Z,23.20
2024-02-19T14:50:53.658Z,20.30
2024-02-19T14:55:57.595Z,22.40
2024-02-19T15:01:00.938Z,23.40
2024-02-19T15:06:07.171Z,25.90
2024-02-19T15:11:10.389Z,20.70
2024-02-19T15:16:13.481Z,21.70
2024-02-19T15:21:16.563Z,20.70
2024-02-19T15:26:22.157Z,22.50
2024-02-19T15:31:25.078Z,26.40
2024-02-19T15:36:28.190Z,24.00
2024-02-19T15:41:33.914Z,39.60
2024-02-19T15:46:37.308Z,40.50
2024-02-19T15:51:40.402Z,31.00
2024-02-19T15:56:43.679Z,22.40
2024-02-19T16:01:47.765Z,41.00
2024-02-19T16:06:53.835Z,21.20
2024-02-19T16:11:57.306Z,18.10
2024-02-19T16:17:00.711Z,20.50
2024-02-19T16:22:06.808Z,27.80
2024-02-19T16:27:10.265Z,30.30
2024-02-19T16:32:17.354Z,22.60
2024-02-19T16:37:26.814Z,20.80
2024-02-19T16:42:36.159Z,20.10
2024-02-19T16:47:39.282Z,21.50
2024-02-19T16:52:45.293Z,20.20
2024-02-19T16:57:48.977Z,19.40
2024-02-19T17:02:52.016Z,17.30
2024-02-19T17:07:55.651Z,19.60
2024-02-19T17:12:58.836Z,17.00
2024-02-19T17:18:02.017Z,14.50
2024-02-19T17:23:06.827Z,19.00
2024-02-19T17:28:09.940Z,22.20
2024-02-19T17:33:21.112Z,16.70
2024-02-19T17:38:26.871Z,14.40
2024-02-19T17:43:30.158Z,12.70
2024-02-19T17:48:33.806Z,17.60
2024-02-19T17:53:37.583Z,29.30
2024-02-19T17:58:43.575Z,79.30
2024-02-19T18:03:49.766Z,42.40
2024-02-19T18:08:53.155Z,48.40
2024-02-19T18:13:56.143Z,42.20
2024-02-19T18:19:01.557Z,34.70
2024-02-19T18:24:09.601Z,32.30
2024-02-19T18:29:16.758Z,28.40
2024-02-19T18:34:19.944Z,34.80
2024-02-19T18:39:22.949Z,28.60
2024-02-19T18:44:25.964Z,32.20
2024-02-19T18:49:33.223Z,46.50
2024-02-19T18:54:36.602Z,26.80
2024-02-19T18:59:40.959Z,18.90
2024-02-19T19:04:45.372Z,22.20
2024-02-19T19:09:48.738Z,17.60
2024-02-19T19:14:52.914Z,21.80
2024-02-19T19:19:55.985Z,18.80
2024-02-19T19:24:59.075Z,16.00
2024-02-19T19:30:02.076Z,12.30
2024-02-19T19:35:06.175Z,13.20
2024-02-19T19:40:10.554Z,15.40
2024-02-19T19:45:15.479Z,13.90
2024-02-19T19:50:20.449Z,12.40
2024-02-19T19:55:23.818Z,12.80
2024-02-19T20:00:28.717Z,10.80
2024-02-19T20:05:31.907Z,6.50
2024-02-19T20:10:35.754Z,9.50
2024-02-19T20:15:39.877Z,12.60
2024-02-19T20:20:43.783Z,12.10
2024-02-19T20:25:47.095Z,10.60
2024-02-19T20:30:50.119Z,10.10
2024-02-19T20:35:56.249Z,6.70
2024-02-19T20:40:59.301Z,7.60
2024-02-19T20:46:02.348Z,6.90
2024-02-19T20:51:06.237Z,6.90
2024-02-19T20:56:09.212Z,5.00
2024-02-19T21:01:12.700Z,6.20
2024-02-19T21:06:15.689Z,5.40
2024-02-19T21:11:18.695Z,4.40
2024-02-19T21:16:22.664Z,4.60
2024-02-19T21:21:30.556Z,4.30
2024-02-19T21:26:38.156Z,4.80
2024-02-19T21:31:41.401Z,3.30
2024-02-19T21:36:44.376Z,3.10
2024-02-19T21:41:47.463Z,2.90
2024-02-19T21:46:50.432Z,2.50
2024-02-19T21:51:53.398Z,2.60
2024-02-19T21:56:57.170Z,3.10
2024-02-19T22:02:05.257Z,2.90
2024-02-19T22:07:08.293Z,2.10
2024-02-19T22:12:11.269Z,1.80
2024-02-19T22:17:15.187Z,2.00
2024-02-19T22:22:18.143Z,2.70
2024-02-19T22:27:21.782Z,2.30
2024-02-19T22:32:24.620Z,2.40
2024-02-19T22:37:27.707Z,2.30
2024-02-19T22:42:31.684Z,1.80
2024-02-19T22:47:35.147Z,3.30
2024-02-19T22:52:41.316Z,3.40
2024-02-19T22:57:45.983Z,2.20
2024-02-19T23:02:49.580Z,2.80
2024-02-19T23:07:55.131Z,3.30
2024-02-19T23:12:58.336Z,3.60
2024-02-19T23:18:03.634Z,3.30
2024-02-19T23:23:07.365Z,3.40
2024-02-19T23:28:10.469Z,4.50
2024-02-19T23:33:13.960Z,2.80
2024-02-19T23:38:21.612Z,3.30
2024-02-19T23:43:24.632Z,4.60
2024-02-19T23:48:27.686Z,4.10
2024-02-19T23:53:30.819Z,3.30
2024-02-19T23:58:34.083Z,2.50
